createdAt,value
2023-04-12T00:02:11.690Z,1.98
2023-04-12T00:04:38.460Z,2.50
2023-04-12T00:07:06.039Z,3.10
2023-04-12T00:09:32.541Z,2.90
2023-04-12T00:11:59.718Z,3.00
2023-04-12T00:14:26.400Z,3.20
2023-04-12T00:16:53.031Z,3.45
2023-04-12T00:19:19.711Z,3.22
2023-04-12T00:21:46.169Z,3.83
2023-04-12T00:24:12.969Z,3.25
2023-04-12T00:26:39.405Z,3.38
2023-04-12T00:29:05.827Z,3.13
2023-04-12T00:31:32.346Z,3.22
2023-04-12T00:34:01.494Z,2.80
2023-04-12T00:36:28.031Z,3.10
2023-04-12T00:38:54.509Z,3.03
2023-04-12T00:41:21.011Z,3.42
2023-04-12T00:43:47.442Z,3.05
2023-04-12T00:46:13.988Z,3.00
2023-04-12T00:48:40.635Z,3.13
2023-04-12T00:51:07.377Z,3.22
2023-04-12T00:53:34.321Z,3.10
2023-04-12T00:56:01.736Z,3.30
2023-04-12T00:58:28.412Z,3.20
2023-04-12T01:00:54.964Z,3.03
2023-04-12T01:03:23.307Z,3.25
2023-04-12T01:05:59.797Z,3.38
2023-04-12T01:08:39.198Z,3.45
2023-04-12T01:11:17.321Z,3.78
2023-04-12T01:13:52.809Z,3.67
2023-04-12T01:16:36.225Z,3.80
2023-04-12T01:19:04.982Z,4.00
2023-04-12T01:21:41.031Z,3.33
2023-04-12T01:24:14.149Z,3.13
2023-04-12T01:26:44.587Z,3.03
2023-04-12T01:29:12.335Z,3.33
2023-04-12T01:31:40.359Z,3.42
2023-04-12T01:34:07.956Z,3.03
2023-04-12T01:36:34.713Z,3.25
2023-04-12T01:39:04.553Z,3.50
2023-04-12T01:41:32.639Z,3.08
2023-04-12T01:43:59.316Z,3.40
2023-04-12T01:46:25.991Z,2.80
2023-04-12T01:48:53.395Z,2.78
2023-04-12T01:51:42.202Z,3.40
2023-04-12T01:54:11.616Z,2.75
2023-04-12T01:56:40.449Z,2.60
2023-04-12T01:59:07.852Z,3.20
2023-04-12T02:01:34.393Z,2.70
2023-04-12T02:04:02.239Z,2.60
2023-04-12T02:06:29.051Z,2.65
2023-04-12T02:09:02.256Z,2.58
2023-04-12T02:11:29.175Z,2.08
2023-04-12T02:13:56.004Z,2.90
2023-04-12T02:16:25.330Z,2.70
2023-04-12T02:18:51.964Z,2.10
2023-04-12T02:21:18.945Z,2.97
2023-04-12T02:23:45.449Z,3.15
2023-04-12T02:26:11.906Z,2.72
2023-04-12T02:28:39.139Z,4.00
2023-04-12T02:31:08.475Z,4.00
2023-04-12T02:33:35.992Z,4.40
2023-04-12T02:36:11.546Z,5.05
2023-04-12T02:38:39.244Z,5.57
2023-04-12T02:41:07.365Z,6.32
2023-04-12T02:43:34.912Z,5.55
2023-04-12T02:46:05.083Z,5.93
2023-04-12T02:48:39.149Z,5.65
2023-04-12T02:51:05.990Z,6.43
2023-04-12T02:53:33.507Z,6.65
2023-04-12T02:56:34.895Z,5.95
2023-04-12T02:59:08.605Z,6.57
2023-04-12T03:01:58.095Z,6.15
2023-04-12T03:04:30.599Z,5.50
2023-04-12T03:06:59.508Z,5.38
2023-04-12T03:09:44.555Z,5.20
2023-04-12T03:12:12.263Z,5.78
2023-04-12T03:14:46.555Z,5.38
2023-04-12T03:17:13.385Z,6.65
2023-04-12T03:19:40.781Z,5.10
2023-04-12T03:22:07.425Z,5.45
2023-04-12T03:24:37.752Z,5.53
2023-04-12T03:27:06.904Z,5.30
2023-04-12T03:29:35.045Z,4.88
2023-04-12T03:32:01.905Z,4.60
2023-04-12T03:34:35.163Z,4.63
2023-04-12T03:37:10.295Z,4.95
2023-04-12T03:39:47.865Z,4.72
2023-04-12T03:42:32.344Z,5.07
2023-04-12T03:45:04.387Z,5.40
2023-04-12T03:47:31.662Z,5.07
2023-04-12T03:52:34.714Z,4.82
2023-04-12T03:55:07.478Z,4.70
2023-04-12T03:57:36.007Z,4.88
2023-04-12T04:00:04.112Z,5.25
2023-04-12T04:02:44.984Z,4.68
2023-04-12T04:05:13.186Z,4.70
2023-04-12T04:07:41.306Z,4.43
2023-04-12T04:10:08.934Z,3.75
2023-04-12T04:12:38.724Z,3.83
2023-04-12T04:15:06.370Z,3.45
2023-04-12T04:17:33.544Z,4.20
2023-04-12T04:20:00.149Z,3.80
2023-04-12T04:22:29.483Z,3.67
2023-04-12T04:24:58.943Z,3.85
2023-04-12T04:27:25.611Z,3.90
2023-04-12T04:29:54.395Z,3.78
2023-04-12T04:32:21.672Z,3.90
2023-04-12T04:34:50.301Z,3.75
2023-04-12T04:37:18.805Z,4.00
2023-04-12T04:39:46.757Z,5.07
2023-04-12T04:42:14.309Z,4.63
2023-04-12T04:45:02.679Z,5.00
2023-04-12T04:47:33.049Z,5.20
2023-04-12T04:49:59.972Z,6.40
2023-04-12T04:52:27.462Z,5.47
2023-04-12T04:54:59.443Z,5.70
2023-04-12T04:57:31.771Z,5.60
2023-04-12T04:59:58.330Z,5.93
2023-04-12T05:02:26.069Z,4.90
2023-04-12T05:04:52.828Z,6.10
2023-04-12T05:07:22.216Z,5.60
2023-04-12T05:09:49.199Z,6.43
2023-04-12T05:12:18.027Z,6.65
2023-04-12T05:14:51.662Z,7.93
2023-04-12T05:17:18.853Z,7.43
2023-04-12T05:19:45.460Z,8.10
2023-04-12T05:22:14.183Z,6.70
2023-04-12T05:24:41.007Z,7.60
2023-04-12T05:27:07.513Z,9.95
2023-04-12T05:29:34.552Z,8.95
2023-04-12T05:32:01.406Z,11.18
2023-04-12T05:34:28.168Z,8.65
2023-04-12T05:36:56.837Z,10.25
2023-04-12T05:39:23.523Z,9.20
2023-04-12T05:41:54.642Z,9.98
2023-04-12T05:44:21.225Z,9.88
2023-04-12T05:46:47.839Z,11.75
2023-04-12T05:49:16.029Z,9.13
2023-04-12T05:51:42.609Z,10.23
2023-04-12T05:54:20.976Z,8.40
2023-04-12T05:56:48.925Z,10.35
2023-04-12T05:59:18.720Z,9.57
2023-04-12T06:01:45.556Z,10.75
2023-04-12T06:04:12.432Z,10.68
2023-04-12T06:06:39.160Z,10.65
2023-04-12T06:09:05.709Z,9.93
2023-04-12T06:11:35.148Z,15.25
2023-04-12T06:14:02.443Z,10.27
2023-04-12T06:16:29.619Z,9.63
2023-04-12T06:18:56.788Z,10.80
2023-04-12T06:21:23.635Z,11.07
2023-04-12T06:23:50.936Z,10.48
2023-04-12T06:26:18.710Z,11.82
2023-04-12T06:28:45.582Z,11.95
2023-04-12T06:31:12.178Z,14.25
2023-04-12T06:33:40.785Z,11.15
2023-04-12T06:36:09.418Z,13.55
2023-04-12T06:38:35.959Z,13.00
2023-04-12T06:41:03.129Z,12.77
2023-04-12T06:43:34.653Z,15.10
2023-04-12T06:46:03.081Z,16.33
2023-04-12T06:48:29.963Z,16.23
2023-04-12T06:50:56.831Z,16.83
2023-04-12T06:53:23.328Z,13.10
2023-04-12T06:55:49.887Z,14.85
2023-04-12T06:58:16.448Z,13.73
2023-04-12T07:00:42.946Z,15.35
2023-04-12T07:03:10.154Z,11.55
2023-04-12T07:05:39.621Z,14.75
2023-04-12T07:08:08.163Z,15.18
2023-04-12T07:10:36.141Z,14.93
2023-04-12T07:13:07.110Z,12.48
2023-04-12T07:15:34.028Z,12.38
2023-04-12T07:18:00.635Z,13.20
2023-04-12T07:20:27.184Z,15.30
2023-04-12T07:22:53.869Z,14.25
2023-04-12T07:25:23.269Z,17.08
2023-04-12T07:27:51.668Z,13.80
2023-04-12T07:30:20.512Z,10.88
2023-04-12T07:32:47.044Z,12.88
2023-04-12T07:35:13.635Z,14.55
2023-04-12T07:37:40.312Z,9.35
2023-04-12T07:40:07.291Z,12.68
2023-04-12T07:42:33.890Z,10.68
2023-04-12T07:45:00.546Z,11.55
2023-04-12T07:47:27.067Z,11.57
2023-04-12T07:49:53.625Z,9.18
2023-04-12T07:52:20.252Z,11.35
2023-04-12T07:54:46.778Z,11.88
2023-04-12T07:57:13.308Z,11.40
2023-04-12T07:59:40.016Z,12.60
2023-04-12T08:02:07.140Z,12.20
2023-04-12T08:04:33.858Z,11.13
2023-04-12T08:07:00.426Z,13.13
2023-04-12T08:09:26.984Z,9.43
2023-04-12T08:11:53.444Z,9.55
2023-04-12T08:14:20.284Z,10.20
2023-04-12T08:16:46.945Z,10.15
2023-04-12T08:19:13.477Z,10.13
2023-04-12T08:21:40.319Z,9.25
2023-04-12T08:24:09.593Z,11.30
2023-04-12T08:26:36.597Z,9.23
2023-04-12T08:29:03.270Z,9.70
2023-04-12T08:31:29.957Z,11.63
2023-04-12T08:33:57.162Z,10.18
2023-04-12T08:36:24.030Z,10.82
2023-04-12T08:38:52.741Z,9.32
2023-04-12T08:41:20.225Z,7.85
2023-04-12T08:43:47.660Z,7.22
2023-04-12T08:46:17.386Z,8.95
2023-04-12T08:48:50.668Z,9.43
2023-04-12T08:51:17.986Z,9.23
2023-04-12T08:53:44.751Z,8.77
2023-04-12T08:56:12.291Z,7.85
2023-04-12T08:58:39.319Z,7.50
2023-04-12T09:01:08.451Z,8.55
2023-04-12T09:03:37.739Z,7.75
2023-04-12T09:06:04.577Z,7.63
2023-04-12T09:08:31.242Z,7.40
2023-04-12T09:10:58.145Z,7.97
2023-04-12T09:13:35.466Z,10.30
2023-04-12T09:16:02.121Z,8.05
2023-04-12T09:18:28.821Z,10.60
2023-04-12T09:21:08.388Z,10.50
2023-04-12T09:23:36.367Z,11.60
2023-04-12T09:26:03.421Z,9.32
2023-04-12T09:28:30.536Z,9.25
2023-04-12T09:30:57.976Z,9.07
2023-04-12T09:33:33.039Z,10.80
2023-04-12T09:36:06.283Z,11.75
2023-04-12T09:38:36.748Z,10.18
2023-04-12T09:41:23.555Z,9.40
2023-04-12T09:43:52.899Z,12.50
2023-04-12T09:46:19.558Z,14.10
2023-04-12T09:48:50.168Z,10.98
2023-04-12T09:51:29.118Z,10.60
2023-04-12T09:53:59.867Z,11.98
2023-04-12T09:56:32.710Z,11.52
2023-04-12T09:59:04.655Z,9.70
2023-04-12T10:01:36.355Z,13.27
2023-04-12T10:04:03.623Z,11.48
2023-04-12T10:06:31.458Z,10.50
2023-04-12T10:08:59.075Z,9.70
2023-04-12T10:11:27.787Z,12.88
2023-04-12T10:13:54.524Z,12.50
2023-04-12T10:16:23.292Z,9.27
2023-04-12T10:18:53.583Z,10.75
2023-04-12T10:21:20.785Z,9.75
2023-04-12T10:23:47.364Z,7.57
2023-04-12T10:26:15.654Z,6.60
2023-04-12T10:28:47.006Z,7.25
2023-04-12T10:31:32.928Z,9.35
2023-04-12T10:34:01.724Z,7.50
2023-04-12T10:36:48.667Z,7.22
2023-04-12T10:39:15.398Z,5.90
2023-04-12T10:42:02.373Z,4.80
2023-04-12T10:44:29.258Z,2.50
2023-04-12T10:46:58.715Z,3.08
2023-04-12T10:49:25.925Z,2.40
2023-04-12T10:52:02.703Z,1.80
2023-04-12T10:54:31.193Z,2.30
2023-04-12T10:56:57.851Z,2.28
2023-04-12T10:59:50.897Z,1.80
2023-04-12T11:02:18.020Z,3.15
2023-04-12T11:05:09.502Z,3.00
2023-04-12T11:08:00.436Z,4.00
2023-04-12T11:10:39.531Z,4.78
2023-04-12T11:13:09.150Z,4.30
2023-04-12T11:15:38.756Z,4.50
2023-04-12T11:18:11.272Z,3.75
2023-04-12T11:20:39.622Z,3.45
2023-04-12T11:23:07.182Z,4.43
2023-04-12T11:25:34.774Z,4.43
2023-04-12T11:28:01.405Z,5.22
2023-04-12T11:30:29.233Z,3.88
2023-04-12T11:32:55.908Z,4.03
2023-04-12T11:35:27.474Z,5.15
2023-04-12T11:37:58.543Z,4.53
2023-04-12T11:40:26.274Z,4.13
2023-04-12T11:42:52.840Z,3.53
2023-04-12T11:45:20.023Z,3.30
2023-04-12T11:47:46.861Z,3.55
2023-04-12T11:50:13.551Z,3.60
2023-04-12T11:52:41.216Z,4.50
2023-04-12T11:55:10.998Z,3.60
2023-04-12T11:57:38.435Z,3.83
2023-04-12T12:00:06.914Z,3.10
2023-04-12T12:02:49.050Z,3.25
2023-04-12T12:05:23.641Z,2.95
2023-04-12T12:07:52.548Z,3.50
2023-04-12T12:10:36.596Z,3.20
2023-04-12T12:13:12.426Z,2.78
2023-04-12T12:15:39.212Z,3.10
2023-04-12T12:18:09.374Z,2.53
2023-04-12T12:20:39.797Z,2.65
2023-04-12T12:23:06.382Z,3.30
2023-04-12T12:25:32.968Z,2.70
2023-04-12T12:27:59.782Z,2.95
2023-04-12T12:30:26.492Z,2.78
2023-04-12T12:32:53.020Z,3.30
2023-04-12T12:35:19.578Z,2.95
2023-04-12T12:37:53.254Z,2.72
2023-04-12T12:40:28.137Z,2.97
2023-04-12T12:42:55.557Z,3.15
2023-04-12T12:45:23.350Z,2.90
2023-04-12T12:47:54.769Z,3.17
2023-04-12T12:50:25.765Z,3.33
2023-04-12T12:52:53.310Z,3.40
2023-04-12T12:55:21.395Z,3.20
2023-04-12T12:58:05.473Z,3.10
2023-04-12T13:00:33.827Z,2.90
2023-04-12T13:03:00.708Z,2.85
2023-04-12T13:05:27.654Z,2.80
2023-04-12T13:07:54.136Z,2.90
2023-04-12T13:10:20.976Z,3.10
2023-04-12T13:12:47.524Z,3.15
2023-04-12T13:15:22.076Z,3.10
2023-04-12T13:17:51.793Z,3.30
2023-04-12T13:20:18.512Z,3.30
2023-04-12T13:22:45.112Z,3.00
2023-04-12T13:25:11.814Z,3.60
2023-04-12T13:27:38.350Z,3.20
2023-04-12T13:30:05.471Z,3.47
2023-04-12T13:32:32.339Z,3.35
2023-04-12T13:34:58.976Z,2.85
2023-04-12T13:37:25.446Z,3.15
2023-04-12T13:39:52.779Z,3.45
2023-04-12T13:42:19.493Z,2.90
2023-04-12T13:44:46.017Z,2.95
2023-04-12T13:47:12.628Z,3.20
2023-04-12T13:49:39.107Z,3.30
2023-04-12T13:52:05.753Z,2.97
2023-04-12T13:54:32.324Z,3.17
2023-04-12T13:56:59.312Z,2.80
2023-04-12T13:59:26.630Z,2.90
2023-04-12T14:01:53.378Z,2.95
2023-04-12T14:04:20.168Z,3.08
2023-04-12T14:06:46.890Z,2.80
2023-04-12T14:09:22.945Z,3.00
2023-04-12T14:11:49.719Z,2.80
2023-04-12T14:14:16.916Z,1.10
2023-04-12T14:16:45.431Z,1.10
2023-04-12T14:19:13.006Z,1.15
2023-04-12T14:21:39.658Z,1.20
2023-04-12T14:24:06.369Z,1.52
2023-04-12T14:26:32.812Z,2.00
2023-04-12T14:28:59.863Z,1.63
2023-04-12T14:31:26.706Z,1.88
2023-04-12T14:33:54.126Z,1.98
2023-04-12T14:36:20.825Z,1.52
2023-04-12T14:38:49.537Z,1.83
2023-04-12T14:41:19.308Z,2.10
2023-04-12T14:43:46.617Z,1.75
2023-04-12T14:46:14.411Z,2.10
2023-04-12T14:48:41.466Z,1.60
2023-04-12T14:51:08.029Z,1.55
2023-04-12T14:53:34.559Z,1.50
2023-04-12T14:56:02.473Z,1.50
2023-04-12T14:58:30.033Z,1.33
2023-04-12T15:00:57.175Z,1.70
2023-04-12T15:03:24.121Z,1.85
2023-04-12T15:05:50.685Z,1.60
2023-04-12T15:08:18.035Z,1.98
2023-04-12T15:10:44.771Z,1.80
2023-04-12T15:13:12.069Z,1.80
2023-04-12T15:15:38.573Z,2.10
2023-04-12T15:18:05.810Z,2.13
2023-04-12T15:20:33.887Z,1.92
2023-04-12T15:23:00.567Z,1.42
2023-04-12T15:25:27.411Z,0.90
2023-04-12T15:27:53.878Z,0.82
2023-04-12T15:30:20.629Z,1.00
2023-04-12T15:32:47.204Z,0.80
2023-04-12T15:37:44.355Z,0.90
2023-04-12T15:40:14.070Z,0.77
2023-04-12T15:42:42.550Z,0.50
2023-04-12T15:45:12.416Z,0.60
2023-04-12T15:47:39.925Z,0.85
2023-04-12T15:50:08.098Z,0.85
2023-04-12T15:52:36.602Z,0.70
2023-04-12T15:55:05.345Z,0.85
2023-04-12T15:57:32.416Z,1.00
2023-04-12T15:59:59.929Z,0.60
2023-04-12T16:02:26.999Z,0.77
2023-04-12T16:04:55.996Z,0.80
2023-04-12T16:07:23.242Z,0.80
2023-04-12T16:09:49.748Z,1.00
2023-04-12T16:12:16.245Z,0.70
2023-04-12T16:14:43.214Z,0.98
2023-04-12T16:17:09.992Z,1.00
2023-04-12T16:19:36.783Z,1.27
2023-04-12T16:22:03.565Z,1.10
2023-04-12T16:24:30.121Z,1.30
2023-04-12T16:26:57.435Z,0.95
2023-04-12T16:29:24.374Z,1.20
2023-04-12T16:31:52.394Z,1.20
2023-04-12T16:34:22.074Z,1.10
2023-04-12T16:36:49.058Z,1.30
2023-04-12T16:39:16.568Z,0.90
2023-04-12T16:41:47.035Z,1.00
2023-04-12T16:44:20.143Z,1.05
2023-04-12T16:46:47.815Z,0.70
2023-04-12T16:49:14.493Z,0.90
2023-04-12T16:51:41.126Z,0.90
2023-04-12T16:54:07.817Z,0.82
2023-04-12T16:56:34.357Z,1.08
2023-04-12T16:59:01.205Z,1.10
2023-04-12T17:01:28.127Z,1.00
2023-04-12T17:03:54.807Z,0.82
2023-04-12T17:06:21.782Z,1.08
2023-04-12T17:08:49.033Z,1.00
2023-04-12T17:11:16.658Z,0.90
2023-04-12T17:13:44.788Z,1.30
2023-04-12T17:16:11.743Z,1.60
2023-04-12T17:18:40.601Z,1.30
2023-04-12T17:21:07.233Z,1.60
2023-04-12T17:23:33.793Z,1.35
2023-04-12T17:26:01.391Z,1.20
2023-04-12T17:28:27.948Z,1.38
2023-04-12T17:30:57.509Z,1.52
2023-04-12T17:33:23.992Z,1.55
2023-04-12T17:35:50.643Z,1.48
2023-04-12T17:38:17.160Z,1.50
2023-04-12T17:40:43.645Z,1.60
2023-04-12T17:43:10.527Z,1.40
2023-04-12T17:45:37.419Z,1.60
2023-04-12T17:48:04.303Z,1.90
2023-04-12T17:50:30.928Z,1.30
2023-04-12T17:52:59.632Z,1.60
2023-04-12T17:55:26.487Z,1.73
2023-04-12T17:57:53.380Z,2.15
2023-04-12T18:00:20.778Z,2.08
2023-04-12T18:02:47.593Z,1.63
2023-04-12T18:05:15.634Z,1.80
2023-04-12T18:07:42.632Z,2.60
2023-04-12T18:10:10.331Z,3.75
2023-04-12T18:12:38.624Z,3.63
2023-04-12T18:15:06.860Z,2.70
2023-04-12T18:17:33.368Z,2.28
2023-04-12T18:20:02.403Z,2.10
2023-04-12T18:22:29.705Z,2.20
2023-04-12T18:24:56.529Z,2.13
2023-04-12T18:27:24.156Z,2.40
2023-04-12T18:29:50.724Z,2.38
2023-04-12T18:32:17.221Z,2.10
2023-04-12T18:34:43.723Z,2.60
2023-04-12T18:37:10.214Z,2.38
2023-04-12T18:39:36.757Z,2.42
2023-04-12T18:42:03.299Z,2.53
2023-04-12T18:44:30.048Z,2.30
2023-04-12T18:46:56.640Z,2.40
2023-04-12T18:49:24.075Z,2.45
2023-04-12T18:51:53.180Z,2.40
2023-04-12T18:54:21.073Z,2.10
2023-04-12T18:56:47.587Z,1.90
2023-04-12T18:59:17.807Z,2.10
2023-04-12T19:01:44.742Z,1.98
2023-04-12T19:04:11.604Z,2.08
2023-04-12T19:06:38.439Z,1.80
2023-04-12T19:09:05.521Z,1.60
2023-04-12T19:11:33.200Z,1.50
2023-04-12T19:14:00.764Z,0.95
2023-04-12T19:16:27.540Z,0.63
2023-04-12T19:18:55.388Z,2.15
2023-04-12T19:21:21.861Z,1.65
2023-04-12T19:23:48.352Z,1.80
2023-04-12T19:26:14.929Z,1.83
2023-04-12T19:28:43.270Z,1.73
2023-04-12T19:31:10.860Z,0.98
2023-04-12T19:33:37.620Z,0.95
2023-04-12T19:36:04.696Z,1.73
2023-04-12T19:38:31.228Z,2.40
2023-04-12T19:40:57.819Z,1.80
2023-04-12T19:43:25.948Z,1.95
2023-04-12T19:45:53.260Z,2.53
2023-04-12T19:48:20.068Z,3.28
2023-04-12T19:50:48.507Z,3.47
2023-04-12T19:53:18.554Z,3.90
2023-04-12T19:55:45.196Z,3.70
2023-04-12T19:58:13.166Z,3.85
2023-04-12T20:00:40.977Z,2.00
2023-04-12T20:03:09.210Z,2.35
2023-04-12T20:05:35.910Z,2.40
2023-04-12T20:08:02.474Z,2.50
2023-04-12T20:10:29.035Z,2.40
2023-04-12T20:12:57.952Z,2.70
2023-04-12T20:15:24.465Z,3.40
2023-04-12T20:17:52.164Z,4.35
2023-04-12T20:20:18.841Z,4.73
2023-04-12T20:22:51.770Z,4.97
2023-04-12T20:25:20.236Z,5.50
2023-04-12T20:27:52.194Z,6.20
2023-04-12T20:30:20.445Z,5.68
2023-04-12T20:32:49.174Z,4.32
2023-04-12T20:35:15.838Z,3.27
2023-04-12T20:37:43.283Z,4.10
2023-04-12T20:40:10.017Z,2.70
2023-04-12T20:42:36.740Z,3.63
2023-04-12T20:45:03.378Z,2.10
2023-04-12T20:47:29.922Z,2.37
2023-04-12T20:49:57.032Z,2.20
2023-04-12T20:52:23.566Z,2.38
2023-04-12T20:54:50.137Z,1.83
2023-04-12T20:57:19.827Z,2.60
2023-04-12T20:59:46.745Z,2.50
2023-04-12T21:02:13.457Z,2.60
2023-04-12T21:04:41.802Z,3.30
2023-04-12T21:07:09.094Z,3.27
2023-04-12T21:09:35.575Z,3.17
2023-04-12T21:12:06.157Z,3.87
2023-04-12T21:14:34.876Z,5.27
2023-04-12T21:17:04.988Z,5.97
2023-04-12T21:19:31.630Z,5.40
2023-04-12T21:21:58.924Z,7.17
2023-04-12T21:24:25.465Z,6.43
2023-04-12T21:26:58.090Z,9.23
2023-04-12T21:29:25.235Z,7.23
2023-04-12T21:31:51.841Z,6.53
2023-04-12T21:34:19.820Z,6.53
2023-04-12T21:36:46.555Z,5.97
2023-04-12T21:39:13.030Z,4.73
2023-04-12T21:41:39.587Z,4.40
2023-04-12T21:44:06.205Z,4.27
2023-04-12T21:46:32.627Z,3.50
2023-04-12T21:48:59.369Z,3.55
2023-04-12T21:51:26.376Z,4.43
2023-04-12T21:53:52.860Z,3.13
2023-04-12T21:56:19.333Z,2.43
2023-04-12T21:58:45.896Z,2.33
2023-04-12T22:01:12.716Z,2.33
2023-04-12T22:03:39.222Z,2.23
2023-04-12T22:06:07.046Z,28.50
2023-04-12T22:08:34.090Z,37.97
2023-04-12T22:11:01.306Z,9.30
2023-04-12T22:13:27.827Z,2.90
2023-04-12T22:15:54.387Z,2.33
2023-04-12T22:18:20.925Z,2.00
2023-04-12T22:20:48.106Z,2.20
2023-04-12T22:23:18.386Z,2.40
2023-04-12T22:25:45.466Z,2.45
2023-04-12T22:28:12.253Z,2.40
2023-04-12T22:30:38.963Z,2.50
2023-04-12T22:33:05.608Z,1.70
2023-04-12T22:35:35.114Z,1.80
2023-04-12T22:38:01.780Z,1.80
2023-04-12T22:40:28.420Z,1.40
2023-04-12T22:42:56.099Z,2.03
2023-04-12T22:45:22.540Z,2.37
2023-04-12T22:47:49.086Z,2.60
2023-04-12T22:50:15.614Z,1.90
2023-04-12T22:52:42.175Z,1.50
2023-04-12T22:55:09.909Z,1.70
2023-04-12T22:57:37.020Z,1.90
2023-04-12T23:00:05.819Z,1.70
2023-04-12T23:02:33.299Z,1.50
2023-04-12T23:05:00.241Z,2.20
2023-04-12T23:07:29.924Z,1.50
2023-04-12T23:09:57.434Z,1.60
2023-04-12T23:12:24.153Z,1.30
2023-04-12T23:14:50.923Z,1.88
2023-04-12T23:17:19.702Z,1.70
2023-04-12T23:19:46.519Z,1.67
2023-04-12T23:22:22.498Z,3.00
2023-04-12T23:24:50.563Z,2.10
2023-04-12T23:27:16.987Z,3.43
2023-04-12T23:29:43.437Z,2.30
2023-04-12T23:32:10.482Z,2.15
2023-04-12T23:34:36.981Z,2.30
2023-04-12T23:37:03.526Z,1.87
2023-04-12T23:39:31.438Z,2.22
2023-04-12T23:41:57.900Z,1.83
2023-04-12T23:44:24.972Z,1.65
2023-04-12T23:46:51.672Z,2.22
2023-04-12T23:49:18.158Z,1.80
2023-04-12T23:51:44.769Z,1.90
2023-04-12T23:54:11.180Z,1.60
2023-04-12T23:56:37.644Z,1.77
2023-04-12T23:59:04.095Z,1.95
